Aguas Blancas, Argentina
Current Conditions -  °F | °C
As of 8:00 PM on Thursday 30 Oct 2014 (Local Time) from SLYA Reporting Station
Broken Clouds Broken Clouds  
Wind Chill: 84°   Ceiling: 20000
Heat Index: 91°   Visibility: 6mi
Dew Point: 73°   Wind: 0mph
Humidity: 70%   Direction: NA
Pressure: 29.68"   Gusts: NA
Location:  23.05°S, 64.43°W
Report Text: SLYA 302300Z 00000KT 9999 FEW025CB BKN200 29/23 Q1005
Loading
Personal Weather Stations






























Interactive Weather Map
Tropical Storm Tracking
New forecast layout! Learn more

10-Day Weather Forecast

Advertisements
Track Severe Weather on mobile